Terminal Aerodrome Forecast
Issued by NWS Jackson, KY

Home | Current Version | Previous Version | Text Only | Print | Product List | Glossary On
Versions: 1 2 3 4 5 6 7 8 9 10 11 12 13 14 15 16
915
FTUS43 KJKL 232133 AAB
TAFJKL
TAF AMD
KJKL 232133Z 2322/2418 22005KT P6SM VCSH SCT025 BKN035
     FM232300 21005KT 5SM -TSRA OVC025CB
     FM240200 23007KT 2SM -SHRA VCTS OVC025CB
     FM240600 28005KT 4SM BR BKN010 OVC025
     FM241100 VRB03KT P6SM BKN008
     FM241300 VRB03KT P6SM SCT010=

USA.gov is the U.S. government's official web portal to all federal, state and local government web resources and services.